sensor_id;sensor_type;location;lat;lon;timestamp;pressure;altitude;pressure_sealevel;temperature;humidity
48041;BME280;33815;48.386;11.738;2023-03-19T00:02:03;96195.47;;;3.89;100.00
48041;BME280;33815;48.386;11.738;2023-03-19T00:04:28;96198.03;;;3.89;100.00
48041;BME280;33815;48.386;11.738;2023-03-19T00:06:53;96188.34;;;3.82;100.00
48041;BME280;33815;48.386;11.738;2023-03-19T00:09:19;96199.56;;;3.81;100.00
48041;BME280;33815;48.386;11.738;2023-03-19T00:11:45;96194.53;;;3.68;100.00
48041;BME280;33815;48.386;11.738;2023-03-19T00:14:10;96198.41;;;3.73;100.00
48041;BME280;33815;48.386;11.738;2023-03-19T00:16:36;96173.22;;;3.54;100.00
48041;BME280;33815;48.386;11.738;2023-03-19T00:19:02;96190.56;;;3.64;100.00
48041;BME280;33815;48.386;11.738;2023-03-19T00:21:28;96185.03;;;3.57;100.00
48041;BME280;33815;48.386;11.738;2023-03-19T00:23:53;96168.66;;;3.47;100.00
48041;BME280;33815;48.386;11.738;2023-03-19T00:26:21;96184.44;;;3.53;100.00
48041;BME280;33815;48.386;11.738;2023-03-19T00:28:46;96186.56;;;3.59;100.00
48041;BME280;33815;48.386;11.738;2023-03-19T00:31:13;96186.34;;;3.63;100.00
48041;BME280;33815;48.386;11.738;2023-03-19T00:33:39;96192.28;;;3.52;100.00
48041;BME280;33815;48.386;11.738;2023-03-19T00:36:05;96190.56;;;3.52;100.00
48041;BME280;33815;48.386;11.738;2023-03-19T00:38:31;96193.81;;;3.43;100.00
48041;BME280;33815;48.386;11.738;2023-03-19T00:40:57;96195.34;;;3.34;100.00
48041;BME280;33815;48.386;11.738;2023-03-19T00:43:23;96183.00;;;3.26;100.00
48041;BME280;33815;48.386;11.738;2023-03-19T00:45:48;96173.72;;;3.13;100.00
48041;BME280;33815;48.386;11.738;2023-03-19T00:48:13;96215.34;;;3.31;100.00
48041;BME280;33815;48.386;11.738;2023-03-19T00:50:38;96217.34;;;3.27;100.00
48041;BME280;33815;48.386;11.738;2023-03-19T00:53:04;96220.13;;;3.24;100.00
48041;BME280;33815;48.386;11.738;2023-03-19T00:55:30;96218.25;;;3.26;100.00
48041;BME280;33815;48.386;11.738;2023-03-19T00:57:55;96215.31;;;3.19;100.00
48041;BME280;33815;48.386;11.738;2023-03-19T01:00:20;96218.25;;;3.15;100.00
48041;BME280;33815;48.386;11.738;2023-03-19T01:02:46;96221.97;;;3.11;100.00
48041;BME280;33815;48.386;11.738;2023-03-19T01:05:11;96204.94;;;2.97;100.00
48041;BME280;33815;48.386;11.738;2023-03-19T01:07:37;96211.03;;;2.96;100.00
48041;BME280;33815;48.386;11.738;2023-03-19T01:10:02;96212.19;;;2.91;100.00
48041;BME280;33815;48.386;11.738;2023-03-19T01:12:27;96203.75;;;2.89;100.00
48041;BME280;33815;48.386;11.738;2023-03-19T01:14:53;96185.78;;;2.65;100.00
48041;BME280;33815;48.386;11.738;2023-03-19T01:17:18;96210.94;;;2.73;100.00
48041;BME280;33815;48.386;11.738;2023-03-19T01:19:43;96200.94;;;2.57;100.00
48041;BME280;33815;48.386;11.738;2023-03-19T01:22:09;96218.41;;;2.65;100.00
48041;BME280;33815;48.386;11.738;2023-03-19T01:24:34;96207.25;;;2.53;100.00
48041;BME280;33815;48.386;11.738;2023-03-19T01:27:00;96198.09;;;2.49;100.00
48041;BME280;33815;48.386;11.738;2023-03-19T01:29:25;96212.84;;;2.58;100.00
48041;BME280;33815;48.386;11.738;2023-03-19T01:31:50;96207.66;;;2.47;100.00
48041;BME280;33815;48.386;11.738;2023-03-19T01:34:16;96213.88;;;2.44;100.00
48041;BME280;33815;48.386;11.738;2023-03-19T01:36:41;96207.94;;;2.31;100.00
48041;BME280;33815;48.386;11.738;2023-03-19T01:39:06;96221.50;;;2.33;100.00
48041;BME280;33815;48.386;11.738;2023-03-19T01:41:32;96227.91;;;2.27;100.00
48041;BME280;33815;48.386;11.738;2023-03-19T01:43:57;96223.19;;;2.21;100.00
48041;BME280;33815;48.386;11.738;2023-03-19T01:46:33;96221.03;;;2.28;100.00
48041;BME280;33815;48.386;11.738;2023-03-19T01:49:04;96226.44;;;2.36;100.00
48041;BME280;33815;48.386;11.738;2023-03-19T01:51:38;96226.16;;;2.28;100.00
48041;BME280;33815;48.386;11.738;2023-03-19T01:54:08;96223.06;;;2.22;100.00
48041;BME280;33815;48.386;11.738;2023-03-19T01:56:36;96221.53;;;2.20;100.00
48041;BME280;33815;48.386;11.738;2023-03-19T01:59:08;96222.78;;;2.14;100.00
48041;BME280;33815;48.386;11.738;2023-03-19T02:01:38;96223.94;;;2.10;100.00
48041;BME280;33815;48.386;11.738;2023-03-19T02:04:05;96225.91;;;2.07;100.00
48041;BME280;33815;48.386;11.738;2023-03-19T02:06:31;96229.19;;;2.09;100.00
48041;BME280;33815;48.386;11.738;2023-03-19T02:08:57;96233.84;;;2.03;100.00
48041;BME280;33815;48.386;11.738;2023-03-19T02:11:23;96212.34;;;1.92;100.00
48041;BME280;33815;48.386;11.738;2023-03-19T02:13:49;96211.03;;;1.86;100.00
48041;BME280;33815;48.386;11.738;2023-03-19T02:16:15;96209.72;;;1.80;100.00
48041;BME280;33815;48.386;11.738;2023-03-19T02:18:41;96208.69;;;1.83;100.00
48041;BME280;33815;48.386;11.738;2023-03-19T02:21:09;96193.41;;;1.68;100.00
48041;BME280;33815;48.386;11.738;2023-03-19T02:24:09;96232.31;;;1.88;100.00
48041;BME280;33815;48.386;11.738;2023-03-19T02:26:37;96225.22;;;1.92;100.00
48041;BME280;33815;48.386;11.738;2023-03-19T02:29:02;96231.88;;;1.94;100.00
48041;BME280;33815;48.386;11.738;2023-03-19T02:31:28;96232.50;;;1.98;100.00
48041;BME280;33815;48.386;11.738;2023-03-19T02:34:01;96234.13;;;1.99;100.00
48041;BME280;33815;48.386;11.738;2023-03-19T02:36:34;96202.31;;;1.76;100.00
48041;BME280;33815;48.386;11.738;2023-03-19T02:39:03;96243.81;;;1.95;100.00
48041;BME280;33815;48.386;11.738;2023-03-19T02:41:30;96249.66;;;1.97;100.00
48041;BME280;33815;48.386;11.738;2023-03-19T02:43:57;96233.66;;;1.94;100.00
48041;BME280;33815;48.386;11.738;2023-03-19T02:46:23;96231.06;;;1.94;100.00
48041;BME280;33815;48.386;11.738;2023-03-19T02:48:49;96245.38;;;1.98;100.00
48041;BME280;33815;48.386;11.738;2023-03-19T02:51:14;96232.91;;;1.92;100.00
48041;BME280;33815;48.386;11.738;2023-03-19T02:53:39;96233.72;;;1.92;100.00
48041;BME280;33815;48.386;11.738;2023-03-19T02:56:05;96219.88;;;1.82;100.00
48041;BME280;33815;48.386;11.738;2023-03-19T02:58:30;96211.47;;;1.80;100.00
48041;BME280;33815;48.386;11.738;2023-03-19T03:00:56;96220.69;;;1.82;100.00
48041;BME280;33815;48.386;11.738;2023-03-19T03:03:21;96215.97;;;1.76;100.00
48041;BME280;33815;48.386;11.738;2023-03-19T03:05:46;96210.53;;;1.68;100.00
48041;BME280;33815;48.386;11.738;2023-03-19T03:08:12;96225.13;;;1.80;100.00
48041;BME280;33815;48.386;11.738;2023-03-19T03:10:37;96226.44;;;1.86;100.00
48041;BME280;33815;48.386;11.738;2023-03-19T03:13:02;96222.34;;;1.83;100.00
48041;BME280;33815;48.386;11.738;2023-03-19T03:15:29;96212.28;;;1.80;100.00
48041;BME280;33815;48.386;11.738;2023-03-19T03:17:54;96231.88;;;1.94;100.00
48041;BME280;33815;48.386;11.738;2023-03-19T03:20:20;96236.00;;;1.97;100.00
48041;BME280;33815;48.386;11.738;2023-03-19T03:22:46;96223.78;;;1.87;100.00
48041;BME280;33815;48.386;11.738;2023-03-19T03:25:12;96221.84;;;1.78;100.00
48041;BME280;33815;48.386;11.738;2023-03-19T03:27:37;96221.66;;;1.68;100.00
48041;BME280;33815;48.386;11.738;2023-03-19T03:30:04;96240.22;;;1.72;100.00
48041;BME280;33815;48.386;11.738;2023-03-19T03:32:30;96257.41;;;1.71;100.00
48041;BME280;33815;48.386;11.738;2023-03-19T03:34:55;96245.91;;;1.64;100.00
48041;BME280;33815;48.386;11.738;2023-03-19T03:37:21;96254.31;;;1.66;100.00
48041;BME280;33815;48.386;11.738;2023-03-19T03:39:46;96267.88;;;1.81;100.00
48041;BME280;33815;48.386;11.738;2023-03-19T03:42:12;96254.94;;;1.70;100.00
48041;BME280;33815;48.386;11.738;2023-03-19T03:44:37;96259.66;;;1.76;100.00
48041;BME280;33815;48.386;11.738;2023-03-19T03:47:02;96275.28;;;1.86;100.00
48041;BME280;33815;48.386;11.738;2023-03-19T03:49:28;96263.16;;;1.88;100.00
48041;BME280;33815;48.386;11.738;2023-03-19T03:51:53;96274.84;;;1.92;100.00
48041;BME280;33815;48.386;11.738;2023-03-19T03:54:19;96268.78;;;1.93;100.00
48041;BME280;33815;48.386;11.738;2023-03-19T03:56:44;96268.19;;;1.90;100.00
48041;BME280;33815;48.386;11.738;2023-03-19T03:59:09;96252.16;;;1.73;100.00
48041;BME280;33815;48.386;11.738;2023-03-19T04:01:35;96268.81;;;1.80;100.00
48041;BME280;33815;48.386;11.738;2023-03-19T04:04:00;96267.16;;;1.79;100.00
48041;BME280;33815;48.386;11.738;2023-03-19T04:06:27;96262.75;;;1.81;100.00
48041;BME280;33815;48.386;11.738;2023-03-19T04:08:52;96261.41;;;1.76;100.00
48041;BME280;33815;48.386;11.738;2023-03-19T04:11:18;96245.69;;;1.67;100.00
48041;BME280;33815;48.386;11.738;2023-03-19T04:13:43;96254.53;;;1.63;100.00
48041;BME280;33815;48.386;11.738;2023-03-19T04:16:09;96266.56;;;1.63;100.00
48041;BME280;33815;48.386;11.738;2023-03-19T04:18:36;96272.63;;;1.62;100.00
48041;BME280;33815;48.386;11.738;2023-03-19T04:21:02;96289.25;;;1.82;100.00
48041;BME280;33815;48.386;11.738;2023-03-19T04:23:28;96267.47;;;1.75;100.00
48041;BME280;33815;48.386;11.738;2023-03-19T04:26:00;96295.34;;;1.94;100.00
48041;BME280;33815;48.386;11.738;2023-03-19T04:28:26;96286.16;;;2.02;100.00
48041;BME280;33815;48.386;11.738;2023-03-19T04:31:00;96282.38;;;1.95;100.00
48041;BME280;33815;48.386;11.738;2023-03-19T04:33:26;96291.53;;;1.99;100.00
48041;BME280;33815;48.386;11.738;2023-03-19T04:35:51;96275.25;;;1.99;100.00
48041;BME280;33815;48.386;11.738;2023-03-19T04:38:17;96284.94;;;2.08;100.00
48041;BME280;33815;48.386;11.738;2023-03-19T04:40:42;96274.94;;;2.16;100.00
48041;BME280;33815;48.386;11.738;2023-03-19T04:43:07;96275.34;;;2.10;100.00
48041;BME280;33815;48.386;11.738;2023-03-19T04:45:32;96300.03;;;2.13;100.00
48041;BME280;33815;48.386;11.738;2023-03-19T04:47:58;96281.72;;;2.04;100.00
48041;BME280;33815;48.386;11.738;2023-03-19T04:50:23;96283.69;;;2.14;100.00
48041;BME280;33815;48.386;11.738;2023-03-19T04:52:49;96274.44;;;2.11;100.00
48041;BME280;33815;48.386;11.738;2023-03-19T04:55:14;96278.09;;;2.20;100.00
48041;BME280;33815;48.386;11.738;2023-03-19T04:57:40;96284.69;;;2.24;100.00
48041;BME280;33815;48.386;11.738;2023-03-19T05:00:05;96298.56;;;2.34;100.00
48041;BME280;33815;48.386;11.738;2023-03-19T05:02:31;96286.84;;;2.30;100.00
48041;BME280;33815;48.386;11.738;2023-03-19T05:04:56;96306.66;;;2.41;100.00
48041;BME280;33815;48.386;11.738;2023-03-19T05:07:21;96298.84;;;2.43;100.00
48041;BME280;33815;48.386;11.738;2023-03-19T05:09:47;96276.75;;;2.40;100.00
48041;BME280;33815;48.386;11.738;2023-03-19T05:12:12;96296.09;;;2.70;100.00
48041;BME280;33815;48.386;11.738;2023-03-19T05:14:38;96309.25;;;2.78;100.00
48041;BME280;33815;48.386;11.738;2023-03-19T05:17:03;96300.53;;;2.92;100.00
48041;BME280;33815;48.386;11.738;2023-03-19T05:19:28;96293.59;;;2.81;100.00
48041;BME280;33815;48.386;11.738;2023-03-19T05:21:54;96307.41;;;3.04;100.00
48041;BME280;33815;48.386;11.738;2023-03-19T05:24:21;96295.97;;;2.96;100.00
48041;BME280;33815;48.386;11.738;2023-03-19T05:26:47;96308.81;;;2.84;100.00
48041;BME280;33815;48.386;11.738;2023-03-19T05:29:12;96331.03;;;2.85;100.00
48041;BME280;33815;48.386;11.738;2023-03-19T05:31:38;96320.69;;;2.74;100.00
48041;BME280;33815;48.386;11.738;2023-03-19T05:34:04;96329.63;;;2.81;100.00
48041;BME280;33815;48.386;11.738;2023-03-19T05:36:29;96322.81;;;2.80;100.00
48041;BME280;33815;48.386;11.738;2023-03-19T05:38:55;96331.16;;;2.84;100.00
48041;BME280;33815;48.386;11.738;2023-03-19T05:41:20;96335.91;;;3.01;100.00
48041;BME280;33815;48.386;11.738;2023-03-19T05:43:45;96328.31;;;3.00;100.00
48041;BME280;33815;48.386;11.738;2023-03-19T05:46:11;96333.84;;;3.06;100.00
48041;BME280;33815;48.386;11.738;2023-03-19T05:48:37;96323.38;;;2.97;100.00
48041;BME280;33815;48.386;11.738;2023-03-19T05:51:02;96339.59;;;3.10;100.00
48041;BME280;33815;48.386;11.738;2023-03-19T05:53:28;96343.09;;;3.09;100.00
48041;BME280;33815;48.386;11.738;2023-03-19T05:55:53;96340.66;;;3.07;100.00
48041;BME280;33815;48.386;11.738;2023-03-19T05:58:18;96353.22;;;3.23;100.00
48041;BME280;33815;48.386;11.738;2023-03-19T06:00:44;96344.41;;;3.15;100.00
48041;BME280;33815;48.386;11.738;2023-03-19T06:03:09;96363.81;;;3.32;100.00
48041;BME280;33815;48.386;11.738;2023-03-19T06:05:35;96353.72;;;3.29;100.00
48041;BME280;33815;48.386;11.738;2023-03-19T06:08:00;96357.22;;;3.28;100.00
48041;BME280;33815;48.386;11.738;2023-03-19T06:10:25;96372.72;;;3.39;100.00
48041;BME280;33815;48.386;11.738;2023-03-19T06:12:51;96377.53;;;3.43;100.00
48041;BME280;33815;48.386;11.738;2023-03-19T06:15:16;96382.75;;;3.55;100.00
48041;BME280;33815;48.386;11.738;2023-03-19T06:17:41;96394.03;;;3.65;100.00
48041;BME280;33815;48.386;11.738;2023-03-19T06:20:09;96389.66;;;3.54;100.00
48041;BME280;33815;48.386;11.738;2023-03-19T06:22:35;96387.31;;;3.51;100.00
48041;BME280;33815;48.386;11.738;2023-03-19T06:25:00;96400.00;;;3.66;100.00
48041;BME280;33815;48.386;11.738;2023-03-19T06:27:26;96396.41;;;3.68;100.00
48041;BME280;33815;48.386;11.738;2023-03-19T06:29:52;96384.81;;;3.74;100.00
48041;BME280;33815;48.386;11.738;2023-03-19T06:32:17;96388.25;;;3.86;100.00
48041;BME280;33815;48.386;11.738;2023-03-19T06:34:42;96386.03;;;4.04;100.00
48041;BME280;33815;48.386;11.738;2023-03-19T06:37:07;96389.59;;;4.14;100.00
48041;BME280;33815;48.386;11.738;2023-03-19T06:39:33;96382.19;;;4.21;100.00
48041;BME280;33815;48.386;11.738;2023-03-19T06:41:59;96393.38;;;4.44;100.00
48041;BME280;33815;48.386;11.738;2023-03-19T06:44:24;96411.69;;;4.52;100.00
48041;BME280;33815;48.386;11.738;2023-03-19T06:46:49;96406.16;;;4.57;100.00
48041;BME280;33815;48.386;11.738;2023-03-19T06:49:15;96405.91;;;4.71;100.00
48041;BME280;33815;48.386;11.738;2023-03-19T06:51:40;96397.22;;;4.84;100.00
48041;BME280;33815;48.386;11.738;2023-03-19T06:54:05;96405.78;;;5.07;100.00
48041;BME280;33815;48.386;11.738;2023-03-19T06:56:30;96409.50;;;5.25;100.00
48041;BME280;33815;48.386;11.738;2023-03-19T06:58:56;96412.63;;;5.40;100.00
48041;BME280;33815;48.386;11.738;2023-03-19T07:01:21;96416.78;;;5.64;100.00
48041;BME280;33815;48.386;11.738;2023-03-19T07:03:47;96417.13;;;5.59;100.00
48041;BME280;33815;48.386;11.738;2023-03-19T07:06:12;96431.03;;;5.91;100.00
48041;BME280;33815;48.386;11.738;2023-03-19T07:08:37;96435.78;;;6.07;100.00
48041;BME280;33815;48.386;11.738;2023-03-19T07:11:04;96433.84;;;5.99;100.00
48041;BME280;33815;48.386;11.738;2023-03-19T07:13:30;96432.13;;;6.09;100.00
48041;BME280;33815;48.386;11.738;2023-03-19T07:15:55;96421.78;;;6.09;100.00
48041;BME280;33815;48.386;11.738;2023-03-19T07:18:21;96422.22;;;6.36;100.00
48041;BME280;33815;48.386;11.738;2023-03-19T07:20:46;96437.28;;;6.51;100.00
48041;BME280;33815;48.386;11.738;2023-03-19T07:23:11;96437.47;;;6.60;100.00
48041;BME280;33815;48.386;11.738;2023-03-19T07:25:37;96432.38;;;6.79;100.00
48041;BME280;33815;48.386;11.738;2023-03-19T07:28:03;96436.81;;;7.08;100.00
48041;BME280;33815;48.386;11.738;2023-03-19T07:30:28;96455.19;;;7.36;100.00
48041;BME280;33815;48.386;11.738;2023-03-19T07:32:53;96454.78;;;7.50;100.00
48041;BME280;33815;48.386;11.738;2023-03-19T07:35:19;96476.56;;;7.79;100.00
48041;BME280;33815;48.386;11.738;2023-03-19T07:37:45;96483.66;;;7.96;100.00
48041;BME280;33815;48.386;11.738;2023-03-19T07:40:10;96467.56;;;8.02;100.00
48041;BME280;33815;48.386;11.738;2023-03-19T07:42:36;96472.16;;;8.28;100.00
48041;BME280;33815;48.386;11.738;2023-03-19T07:45:03;96473.81;;;8.49;100.00
48041;BME280;33815;48.386;11.738;2023-03-19T07:47:28;96481.28;;;8.71;100.00
48041;BME280;33815;48.386;11.738;2023-03-19T07:49:55;96480.38;;;8.90;100.00
48041;BME280;33815;48.386;11.738;2023-03-19T07:52:21;96482.06;;;9.19;100.00
48041;BME280;33815;48.386;11.738;2023-03-19T07:54:46;96478.03;;;9.35;100.00
48041;BME280;33815;48.386;11.738;2023-03-19T07:57:11;96469.94;;;9.38;100.00
48041;BME280;33815;48.386;11.738;2023-03-19T07:59:37;96480.72;;;9.43;100.00
48041;BME280;33815;48.386;11.738;2023-03-19T08:02:02;96477.47;;;9.59;100.00
48041;BME280;33815;48.386;11.738;2023-03-19T08:04:27;96499.00;;;9.79;100.00
48041;BME280;33815;48.386;11.738;2023-03-19T08:06:52;96480.25;;;9.75;100.00
48041;BME280;33815;48.386;11.738;2023-03-19T08:09:18;96510.19;;;10.07;100.00
48041;BME280;33815;48.386;11.738;2023-03-19T08:11:43;96503.47;;;10.05;100.00
48041;BME280;33815;48.386;11.738;2023-03-19T08:14:08;96492.38;;;10.03;100.00
48041;BME280;33815;48.386;11.738;2023-03-19T08:16:33;96491.72;;;10.01;100.00
48041;BME280;33815;48.386;11.738;2023-03-19T08:18:59;96492.44;;;9.93;99.56
48041;BME280;33815;48.386;11.738;2023-03-19T08:21:24;96499.28;;;9.94;99.18
48041;BME280;33815;48.386;11.738;2023-03-19T08:23:49;96488.66;;;9.87;99.72
48041;BME280;33815;48.386;11.738;2023-03-19T08:26:14;96497.88;;;10.00;97.18
48041;BME280;33815;48.386;11.738;2023-03-19T08:28:40;96495.88;;;9.93;99.25
48041;BME280;33815;48.386;11.738;2023-03-19T08:31:10;96503.91;;;10.18;99.22
48041;BME280;33815;48.386;11.738;2023-03-19T08:33:36;96513.44;;;10.09;99.11
48041;BME280;33815;48.386;11.738;2023-03-19T08:36:09;96511.06;;;10.16;100.00
48041;BME280;33815;48.386;11.738;2023-03-19T08:38:35;96517.00;;;10.08;100.00
48041;BME280;33815;48.386;11.738;2023-03-19T08:41:01;96513.75;;;10.06;100.00
48041;BME280;33815;48.386;11.738;2023-03-19T08:43:29;96514.91;;;9.94;100.00
48041;BME280;33815;48.386;11.738;2023-03-19T08:45:54;96517.50;;;9.76;100.00
48041;BME280;33815;48.386;11.738;2023-03-19T08:48:20;96498.69;;;9.64;100.00
48041;BME280;33815;48.386;11.738;2023-03-19T08:50:57;96514.28;;;9.64;100.00
48041;BME280;33815;48.386;11.738;2023-03-19T08:53:23;96512.81;;;9.80;100.00
48041;BME280;33815;48.386;11.738;2023-03-19T08:56:00;96521.41;;;10.08;100.00
48041;BME280;33815;48.386;11.738;2023-03-19T08:58:27;96522.13;;;10.18;100.00
48041;BME280;33815;48.386;11.738;2023-03-19T09:01:05;96526.78;;;10.42;100.00
48041;BME280;33815;48.386;11.738;2023-03-19T09:03:31;96529.22;;;10.62;100.00
48041;BME280;33815;48.386;11.738;2023-03-19T09:05:59;96530.31;;;10.77;100.00
48041;BME280;33815;48.386;11.738;2023-03-19T09:08:25;96532.00;;;10.69;100.00
48041;BME280;33815;48.386;11.738;2023-03-19T09:10:51;96540.69;;;10.69;100.00
48041;BME280;33815;48.386;11.738;2023-03-19T09:13:16;96542.25;;;10.62;100.00
48041;BME280;33815;48.386;11.738;2023-03-19T09:15:41;96543.28;;;10.69;100.00
48041;BME280;33815;48.386;11.738;2023-03-19T09:18:07;96546.31;;;10.65;100.00
48041;BME280;33815;48.386;11.738;2023-03-19T09:20:32;96534.44;;;10.62;100.00
48041;BME280;33815;48.386;11.738;2023-03-19T09:22:57;96543.91;;;11.16;100.00
48041;BME280;33815;48.386;11.738;2023-03-19T09:25:22;96530.44;;;11.28;100.00
48041;BME280;33815;48.386;11.738;2023-03-19T09:27:47;96546.69;;;11.57;100.00
48041;BME280;33815;48.386;11.738;2023-03-19T09:30:13;96550.50;;;11.71;98.54
48041;BME280;33815;48.386;11.738;2023-03-19T09:32:39;96556.06;;;11.76;96.78
48041;BME280;33815;48.386;11.738;2023-03-19T09:35:05;96551.31;;;11.71;95.17
48041;BME280;33815;48.386;11.738;2023-03-19T09:37:31;96560.16;;;11.78;94.45
48041;BME280;33815;48.386;11.738;2023-03-19T09:39:56;96556.88;;;11.76;92.36
48041;BME280;33815;48.386;11.738;2023-03-19T09:42:43;96557.81;;;11.59;93.81
48041;BME280;33815;48.386;11.738;2023-03-19T09:45:14;96546.28;;;11.35;94.20
48041;BME280;33815;48.386;11.738;2023-03-19T09:47:41;96560.47;;;11.67;92.86
48041;BME280;33815;48.386;11.738;2023-03-19T09:50:17;96561.25;;;11.68;93.44
48041;BME280;33815;48.386;11.738;2023-03-19T09:53:02;96548.34;;;11.58;93.33
48041;BME280;33815;48.386;11.738;2023-03-19T09:55:37;96555.19;;;11.59;94.03
48041;BME280;33815;48.386;11.738;2023-03-19T09:58:11;96538.56;;;11.68;92.89
48041;BME280;33815;48.386;11.738;2023-03-19T10:00:37;96559.66;;;11.75;92.77
48041;BME280;33815;48.386;11.738;2023-03-19T10:06:36;96557.56;;;11.78;94.80
48041;BME280;33815;48.386;11.738;2023-03-19T10:09:29;96565.00;;;11.65;97.52
48041;BME280;33815;48.386;11.738;2023-03-19T10:12:09;96569.75;;;11.70;97.75
48041;BME280;33815;48.386;11.738;2023-03-19T10:14:50;96574.28;;;11.94;100.00
48041;BME280;33815;48.386;11.738;2023-03-19T10:17:29;96563.38;;;12.07;96.93
48041;BME280;33815;48.386;11.738;2023-03-19T10:20:02;96568.81;;;12.38;94.45
48041;BME280;33815;48.386;11.738;2023-03-19T10:22:35;96567.00;;;12.55;90.55
48041;BME280;33815;48.386;11.738;2023-03-19T10:25:02;96539.72;;;12.91;87.00
48041;BME280;33815;48.386;11.738;2023-03-19T10:27:28;96561.59;;;13.14;86.56
48041;BME280;33815;48.386;11.738;2023-03-19T10:29:54;96560.91;;;13.20;84.65
48041;BME280;33815;48.386;11.738;2023-03-19T10:32:42;96566.41;;;13.59;85.35
48041;BME280;33815;48.386;11.738;2023-03-19T10:35:21;96566.03;;;13.70;84.00
48041;BME280;33815;48.386;11.738;2023-03-19T10:37:50;96547.03;;;13.76;80.45
48041;BME280;33815;48.386;11.738;2023-03-19T10:40:50;96564.13;;;13.56;80.48
48041;BME280;33815;48.386;11.738;2023-03-19T10:43:23;96563.38;;;13.39;81.24
48041;BME280;33815;48.386;11.738;2023-03-19T10:45:49;96554.69;;;13.30;82.85
48041;BME280;33815;48.386;11.738;2023-03-19T10:48:16;96562.06;;;13.26;83.67
48041;BME280;33815;48.386;11.738;2023-03-19T10:50:52;96559.47;;;13.10;84.91
48041;BME280;33815;48.386;11.738;2023-03-19T10:55:53;96547.53;;;13.07;88.40
48041;BME280;33815;48.386;11.738;2023-03-19T10:58:22;96544.09;;;13.07;88.83
48041;BME280;33815;48.386;11.738;2023-03-19T11:01:02;96558.28;;;13.29;87.88
48041;BME280;33815;48.386;11.738;2023-03-19T11:03:31;96563.53;;;13.37;85.65
48041;BME280;33815;48.386;11.738;2023-03-19T11:06:04;96560.78;;;13.70;84.46
48041;BME280;33815;48.386;11.738;2023-03-19T11:08:33;96556.97;;;13.49;84.68
48041;BME280;33815;48.386;11.738;2023-03-19T11:10:59;96546.81;;;13.38;82.96
48041;BME280;33815;48.386;11.738;2023-03-19T11:13:25;96544.59;;;13.10;84.22
48041;BME280;33815;48.386;11.738;2023-03-19T11:15:52;96544.59;;;13.18;82.87
48041;BME280;33815;48.386;11.738;2023-03-19T11:20:55;96539.72;;;12.82;85.46
48041;BME280;33815;48.386;11.738;2023-03-19T11:23:21;96534.50;;;12.74;87.47
48041;BME280;33815;48.386;11.738;2023-03-19T11:25:49;96539.91;;;12.64;89.08
48041;BME280;33815;48.386;11.738;2023-03-19T11:28:18;96541.69;;;12.89;89.42
48041;BME280;33815;48.386;11.738;2023-03-19T11:31:00;96544.28;;;13.05;89.78
48041;BME280;33815;48.386;11.738;2023-03-19T11:33:32;96535.13;;;13.01;86.78
48041;BME280;33815;48.386;11.738;2023-03-19T11:36:20;96534.00;;;12.79;86.93
48041;BME280;33815;48.386;11.738;2023-03-19T11:39:09;96537.13;;;12.82;88.09
48041;BME280;33815;48.386;11.738;2023-03-19T11:50:14;96524.66;;;13.01;82.72
48041;BME280;33815;48.386;11.738;2023-03-19T11:53:00;96528.56;;;13.05;80.86
48041;BME280;33815;48.386;11.738;2023-03-19T11:55:32;96523.03;;;12.92;81.54
48041;BME280;33815;48.386;11.738;2023-03-19T11:58:16;96520.28;;;12.77;82.57
48041;BME280;33815;48.386;11.738;2023-03-19T12:00:51;96515.34;;;12.90;82.39
48041;BME280;33815;48.386;11.738;2023-03-19T12:08:48;96494.31;;;13.40;80.83
48041;BME280;33815;48.386;11.738;2023-03-19T12:17:17;96507.78;;;13.12;78.96
48041;BME280;33815;48.386;11.738;2023-03-19T12:26:05;96501.81;;;12.78;79.57
48041;BME280;33815;48.386;11.738;2023-03-19T12:28:53;96499.03;;;12.88;80.05
48041;BME280;33815;48.386;11.738;2023-03-19T12:31:35;96492.72;;;13.14;80.63
48041;BME280;33815;48.386;11.738;2023-03-19T12:36:40;96487.72;;;13.83;76.36
48041;BME280;33815;48.386;11.738;2023-03-19T12:39:14;96467.03;;;13.65;77.41
48041;BME280;33815;48.386;11.738;2023-03-19T12:41:45;96475.91;;;13.87;76.32
48041;BME280;33815;48.386;11.738;2023-03-19T12:44:18;96474.53;;;14.00;74.21
48041;BME280;33815;48.386;11.738;2023-03-19T12:46:56;96461.97;;;14.33;70.66
48041;BME280;33815;48.386;11.738;2023-03-19T12:49:32;96474.44;;;14.08;72.16
48041;BME280;33815;48.386;11.738;2023-03-19T12:52:11;96462.91;;;14.41;71.28
48041;BME280;33815;48.386;11.738;2023-03-19T12:54:44;96471.03;;;14.69;72.38
48041;BME280;33815;48.386;11.738;2023-03-19T12:58:17;96468.47;;;14.22;70.16
48041;BME280;33815;48.386;11.738;2023-03-19T13:00:31;96473.88;;;13.98;73.53
48041;BME280;33815;48.386;11.738;2023-03-19T13:11:05;96470.31;;;13.91;72.09
48041;BME280;33815;48.386;11.738;2023-03-19T13:13:57;96465.78;;;13.84;70.72
48041;BME280;33815;48.386;11.738;2023-03-19T13:16:36;96462.75;;;13.96;71.97
48041;BME280;33815;48.386;11.738;2023-03-19T13:19:13;96472.81;;;13.84;71.94
48041;BME280;33815;48.386;11.738;2023-03-19T13:21:40;96461.13;;;13.95;72.11
48041;BME280;33815;48.386;11.738;2023-03-19T13:24:38;96464.91;;;13.92;72.86
48041;BME280;33815;48.386;11.738;2023-03-19T13:27:08;96462.66;;;14.04;70.28
48041;BME280;33815;48.386;11.738;2023-03-19T13:29:36;96457.25;;;13.82;70.30
48041;BME280;33815;48.386;11.738;2023-03-19T13:32:08;96465.78;;;13.53;71.13
48041;BME280;33815;48.386;11.738;2023-03-19T13:34:46;96467.41;;;13.14;73.34
48041;BME280;33815;48.386;11.738;2023-03-19T13:37:14;96458.50;;;12.76;74.14
48041;BME280;33815;48.386;11.738;2023-03-19T13:39:41;96463.91;;;12.74;75.67
48041;BME280;33815;48.386;11.738;2023-03-19T13:45:00;96452.84;;;12.47;76.03